Terminal Aerodrome Forecast
Issued by NWS Shreveport, LA

Home | Current Version | Previous Version | Text Only | Print | Product List | Glossary On
Versions: 1 2 3 4 5 6 7 8 9 10 11 12
000
FTUS44 KSHV 020539
TAFELD
TAF
KELD 020539Z 0206/0306 00000KT P6SM SCT140 BKN250
      TEMPO 0206/0210 2SM BR
     FM021000 00000KT 5SM BR SCT250
      TEMPO 0210/0213 2SM BR
     FM021500 14005KT P6SM SCT040 BKN140 BKN250
     FM030000 VRB03KT P6SM SCT050 SCT140 BKN250=

USA.gov is the U.S. government's official web portal to all federal, state and local government web resources and services.